KUOX/UOX METAR and TAF weather

Enter ICAO airport designator
Station Type Date Time Source
KUOX METAR 2019/08/24 07:15 UTC NOAA

KUOX 240715Z AUTO 00000KT 7SM FEW015 21/21 A3002 RMK AO2


Station Type Date Time Source
KUOX Decoded METAR 2019/08/24 07:15 UTC NOAA

Station name not available
Aug 24, 2019 - 03:15 AM EDT / 2019.08.24 0715 UTC
Wind: Calm:0
Visibility: 7 mile(s):0
Sky conditions: mostly clear
Temperature: 69 F (21 C)
Dew Point: 69 F (21 C)
Relative Humidity: 100%
Pressure (altimeter): 30.02 in. Hg (1016 hPa)
ob: KUOX 240715Z AUTO 00000KT 7SM FEW015 21/21 A3002 RMK AO2
cycle: 7

Station Type Date Time Source
KUOX TAF UTC NOAA

Error!

Example: see airport list